createdAt,value
2019-01-25T00:00:59.280Z,1.70
2019-01-25T00:03:28.382Z,1.70
2019-01-25T00:05:57.578Z,1.80
2019-01-25T00:08:26.503Z,1.80
2019-01-25T00:10:55.600Z,1.80
2019-01-25T00:13:24.569Z,1.80
2019-01-25T00:15:53.623Z,1.80
2019-01-25T00:18:22.791Z,1.80
2019-01-25T00:20:51.852Z,1.80
2019-01-25T00:23:20.944Z,1.80
2019-01-25T00:25:50.022Z,1.70
2019-01-25T00:28:18.955Z,1.70
2019-01-25T00:30:48.049Z,1.70
2019-01-25T00:33:17.054Z,1.70
2019-01-25T00:35:46.014Z,1.80
2019-01-25T00:38:15.114Z,1.80
2019-01-25T00:40:44.180Z,1.80
2019-01-25T00:43:13.217Z,1.80
2019-01-25T00:45:42.121Z,1.80
2019-01-25T00:48:11.213Z,1.70
2019-01-25T00:50:40.665Z,1.70
2019-01-25T00:53:10.141Z,1.70
2019-01-25T00:55:39.159Z,1.80
2019-01-25T00:58:08.160Z,1.70
2019-01-25T01:00:37.361Z,1.70
2019-01-25T01:03:07.380Z,1.70
2019-01-25T01:05:39.381Z,1.70
2019-01-25T01:08:08.462Z,1.80
2019-01-25T01:10:37.592Z,1.80
2019-01-25T01:13:07.220Z,1.80
2019-01-25T01:15:36.188Z,1.80
2019-01-25T01:18:05.574Z,1.80
2019-01-25T01:20:34.746Z,1.80
2019-01-25T01:23:04.047Z,1.80
2019-01-25T01:25:33.153Z,1.80
2019-01-25T01:28:02.014Z,1.80
2019-01-25T01:30:31.150Z,1.80
2019-01-25T01:33:00.367Z,1.70
2019-01-25T01:35:29.642Z,1.80
2019-01-25T01:37:59.062Z,1.80
2019-01-25T01:40:28.103Z,1.70
2019-01-25T01:42:57.202Z,1.70
2019-01-25T01:45:26.416Z,1.70
2019-01-25T01:47:55.376Z,1.70
2019-01-25T01:50:24.319Z,1.70
2019-01-25T01:52:53.849Z,1.70
2019-01-25T01:55:23.006Z,1.70
2019-01-25T01:57:52.102Z,1.70
2019-01-25T02:00:26.460Z,1.70
2019-01-25T02:02:55.540Z,1.70
2019-01-25T02:05:24.612Z,1.70
2019-01-25T02:07:53.888Z,1.70
2019-01-25T02:10:29.692Z,1.70
2019-01-25T02:12:58.086Z,1.70
2019-01-25T02:15:27.205Z,1.70
2019-01-25T02:17:56.499Z,1.70
2019-01-25T02:20:27.798Z,1.70
2019-01-25T02:22:56.888Z,1.70
2019-01-25T02:25:26.228Z,1.70
2019-01-25T02:27:55.439Z,1.70
2019-01-25T02:30:25.511Z,1.70
2019-01-25T02:32:54.654Z,1.70
2019-01-25T02:35:23.775Z,1.70
2019-01-25T02:37:52.859Z,1.70
2019-01-25T02:40:24.469Z,1.70
2019-01-25T02:42:54.227Z,1.70
2019-01-25T02:45:23.531Z,1.70
2019-01-25T02:47:52.622Z,1.70
2019-01-25T02:50:21.547Z,1.70
2019-01-25T02:52:50.837Z,1.60
2019-01-25T02:55:19.950Z,1.70
2019-01-25T02:57:49.016Z,1.70
2019-01-25T03:00:22.930Z,1.70
2019-01-25T03:02:52.350Z,1.70
2019-01-25T03:05:22.386Z,1.70
2019-01-25T03:07:51.972Z,1.70
2019-01-25T03:10:28.683Z,1.70
2019-01-25T03:12:52.507Z,1.70
2019-01-25T03:15:23.872Z,1.70
2019-01-25T03:17:53.064Z,1.70
2019-01-25T03:20:22.523Z,1.70
2019-01-25T03:22:51.672Z,1.70
2019-01-25T03:25:23.326Z,1.70
2019-01-25T03:27:52.472Z,1.70
2019-01-25T03:30:22.543Z,1.70
2019-01-25T03:32:51.704Z,1.70
2019-01-25T03:35:21.953Z,1.70
2019-01-25T03:37:51.119Z,1.80
2019-01-25T03:40:22.872Z,1.80
2019-01-25T03:42:52.136Z,1.70
2019-01-25T03:45:22.136Z,1.70
2019-01-25T03:47:51.198Z,1.70
2019-01-25T03:50:22.799Z,1.70
2019-01-25T03:52:51.780Z,1.60
2019-01-25T03:55:20.854Z,1.70
2019-01-25T03:57:49.809Z,1.70
2019-01-25T04:00:20.763Z,1.70
2019-01-25T04:02:49.867Z,1.70
2019-01-25T04:05:19.217Z,1.60
2019-01-25T04:07:48.900Z,1.60
2019-01-25T04:10:23.014Z,1.60
2019-01-25T04:12:51.981Z,1.60
2019-01-25T04:15:23.126Z,1.60
2019-01-25T04:17:52.468Z,1.50
2019-01-25T04:20:21.933Z,1.40
2019-01-25T04:22:51.084Z,1.50
2019-01-25T04:25:21.662Z,1.40
2019-01-25T04:27:50.887Z,1.40
2019-01-25T04:30:25.025Z,1.40
2019-01-25T04:32:54.108Z,1.30
2019-01-25T04:35:23.200Z,1.30
2019-01-25T04:37:52.300Z,1.40
2019-01-25T04:40:21.755Z,1.40
2019-01-25T04:42:50.855Z,1.40
2019-01-25T04:45:20.422Z,1.40
2019-01-25T04:47:49.605Z,1.40
2019-01-25T04:50:20.797Z,1.40
2019-01-25T04:52:49.984Z,1.40
2019-01-25T04:55:24.455Z,1.40
2019-01-25T04:57:53.617Z,1.50
2019-01-25T05:00:23.116Z,1.40
2019-01-25T05:03:01.181Z,1.50
2019-01-25T05:05:30.618Z,1.50
2019-01-25T05:08:03.709Z,1.50
2019-01-25T05:10:33.077Z,1.40
2019-01-25T05:13:02.052Z,1.30
2019-01-25T05:15:31.037Z,1.30
2019-01-25T05:18:00.027Z,1.30
2019-01-25T05:20:29.141Z,1.20
2019-01-25T05:22:59.961Z,1.00
2019-01-25T05:25:29.402Z,1.10
2019-01-25T05:28:00.359Z,1.10
2019-01-25T05:30:29.422Z,1.20
2019-01-25T05:32:58.401Z,1.20
2019-01-25T05:35:33.767Z,1.10
2019-01-25T05:38:02.736Z,0.90
2019-01-25T05:40:31.817Z,1.00
2019-01-25T05:43:00.690Z,1.00
2019-01-25T05:45:29.870Z,1.10
2019-01-25T05:47:58.986Z,1.10
2019-01-25T05:50:28.013Z,0.90
2019-01-25T05:52:56.922Z,1.00
2019-01-25T05:55:26.003Z,1.00
2019-01-25T05:58:01.248Z,1.00
2019-01-25T06:00:33.998Z,0.90
2019-01-25T06:03:11.525Z,0.80
2019-01-25T06:05:40.868Z,0.90
2019-01-25T06:08:30.183Z,0.90
2019-01-25T06:11:01.438Z,1.00
2019-01-25T06:13:30.578Z,0.90
2019-01-25T06:16:00.747Z,0.90
2019-01-25T06:18:29.731Z,0.90
2019-01-25T06:20:59.901Z,0.90
2019-01-25T06:23:29.629Z,0.90
2019-01-25T06:25:59.737Z,0.80
2019-01-25T06:28:29.167Z,0.70
2019-01-25T06:30:58.265Z,0.60
2019-01-25T06:33:27.225Z,0.50
2019-01-25T06:35:56.418Z,0.50
2019-01-25T06:38:25.823Z,0.60
2019-01-25T06:40:55.057Z,0.70
2019-01-25T06:43:24.218Z,0.60
2019-01-25T06:45:53.623Z,0.60
2019-01-25T06:48:22.886Z,0.60
2019-01-25T06:50:52.197Z,0.60
2019-01-25T06:53:21.564Z,0.60
2019-01-25T06:55:50.537Z,0.60
2019-01-25T06:58:38.784Z,0.60
2019-01-25T07:01:30.204Z,0.70
2019-01-25T07:03:59.455Z,0.80
2019-01-25T07:06:28.634Z,0.90
2019-01-25T07:08:57.845Z,0.70
2019-01-25T07:11:26.893Z,0.80
2019-01-25T07:13:55.988Z,0.80
2019-01-25T07:16:26.457Z,0.80
2019-01-25T07:18:55.492Z,0.70
2019-01-25T07:21:24.611Z,0.70
2019-01-25T07:23:53.729Z,0.60
2019-01-25T07:26:22.951Z,0.70
2019-01-25T07:28:52.153Z,0.80
2019-01-25T07:31:21.506Z,0.80
2019-01-25T07:33:50.664Z,0.80
2019-01-25T07:36:19.780Z,0.90
2019-01-25T07:38:48.864Z,1.00
2019-01-25T07:41:17.973Z,0.90
2019-01-25T07:43:46.951Z,1.00
2019-01-25T07:46:16.122Z,1.00
2019-01-25T07:48:45.263Z,1.10
2019-01-25T07:51:14.270Z,1.10
2019-01-25T07:53:44.112Z,1.10
2019-01-25T07:56:13.451Z,1.20
2019-01-25T07:58:42.517Z,1.10
2019-01-25T08:01:11.630Z,1.20
2019-01-25T08:03:40.764Z,1.20
2019-01-25T08:06:09.957Z,1.00
2019-01-25T08:08:39.234Z,1.00
2019-01-25T08:11:09.615Z,1.00
2019-01-25T08:13:40.941Z,1.00
2019-01-25T08:16:29.196Z,1.00
2019-01-25T08:18:47.266Z,0.90
2019-01-25T08:21:17.239Z,1.00
2019-01-25T08:23:58.638Z,1.10
2019-01-25T08:26:29.815Z,1.20
2019-01-25T08:29:03.624Z,1.20
2019-01-25T08:31:36.079Z,1.00
2019-01-25T08:34:05.157Z,1.00
2019-01-25T08:36:44.477Z,1.00
2019-01-25T08:39:13.540Z,1.00
2019-01-25T08:41:50.416Z,1.00
2019-01-25T08:44:20.167Z,1.10
2019-01-25T08:46:50.275Z,1.30
2019-01-25T08:49:19.326Z,1.40
2019-01-25T08:51:48.472Z,1.50
2019-01-25T08:54:17.842Z,1.60
2019-01-25T08:56:47.194Z,1.70
2019-01-25T08:59:16.349Z,1.80
2019-01-25T09:01:45.852Z,1.70
2019-01-25T09:04:15.500Z,1.70
2019-01-25T09:06:44.578Z,1.60
2019-01-25T09:09:13.293Z,1.60
2019-01-25T09:11:42.367Z,1.70
2019-01-25T09:14:11.504Z,1.70
2019-01-25T09:16:40.555Z,1.80
2019-01-25T09:19:09.634Z,1.80
2019-01-25T09:21:38.726Z,2.00
2019-01-25T09:24:07.724Z,2.00
2019-01-25T09:26:36.730Z,2.10
2019-01-25T09:29:06.024Z,2.20
2019-01-25T09:31:35.109Z,2.20
2019-01-25T09:34:04.426Z,2.20
2019-01-25T09:36:33.420Z,2.20
2019-01-25T09:39:02.474Z,2.10
2019-01-25T09:41:35.243Z,2.10
2019-01-25T09:44:04.376Z,2.20
2019-01-25T09:46:33.564Z,2.10
2019-01-25T09:49:02.840Z,2.10
2019-01-25T09:51:31.854Z,2.10
2019-01-25T09:54:02.714Z,2.00
2019-01-25T09:56:33.908Z,1.90
2019-01-25T09:59:03.092Z,1.90
2019-01-25T10:01:32.154Z,1.90
2019-01-25T10:04:01.234Z,1.70
2019-01-25T10:06:30.225Z,1.60
2019-01-25T10:08:59.358Z,1.70
2019-01-25T10:11:28.850Z,1.70
2019-01-25T10:13:59.832Z,1.70
2019-01-25T10:16:30.724Z,1.70
2019-01-25T10:19:00.456Z,1.70
2019-01-25T10:21:29.697Z,1.70
2019-01-25T10:23:59.018Z,1.70
2019-01-25T10:26:28.249Z,1.70
2019-01-25T10:28:57.590Z,1.40
2019-01-25T10:31:28.896Z,1.40
2019-01-25T10:33:58.143Z,1.20
2019-01-25T10:36:27.166Z,1.10
2019-01-25T10:38:56.765Z,1.00
2019-01-25T10:41:25.887Z,1.10
2019-01-25T10:43:55.430Z,1.30
2019-01-25T10:46:24.696Z,1.30
2019-01-25T10:48:53.801Z,1.40
2019-01-25T10:51:22.950Z,1.30
2019-01-25T10:53:52.284Z,1.30
2019-01-25T10:56:21.648Z,1.30
2019-01-25T10:58:50.676Z,1.30
2019-01-25T11:01:20.362Z,1.30
2019-01-25T11:03:49.801Z,1.20
2019-01-25T11:06:18.912Z,1.30
2019-01-25T11:08:48.083Z,1.30
2019-01-25T11:11:17.726Z,1.40
2019-01-25T11:13:52.340Z,1.30
2019-01-25T11:16:23.496Z,1.20
2019-01-25T11:18:52.750Z,1.30
2019-01-25T11:21:22.629Z,1.30
2019-01-25T11:23:51.706Z,1.40
2019-01-25T11:26:21.606Z,1.30
2019-01-25T11:28:53.512Z,1.30
2019-01-25T11:31:22.647Z,1.40
2019-01-25T11:33:51.630Z,1.40
2019-01-25T11:36:20.902Z,1.30
2019-01-25T11:38:50.467Z,1.30
2019-01-25T11:41:19.706Z,1.40
2019-01-25T11:43:48.926Z,1.50
2019-01-25T11:46:18.008Z,1.60
2019-01-25T11:48:47.250Z,1.50
2019-01-25T11:51:16.496Z,1.50
2019-01-25T11:53:45.588Z,1.50
2019-01-25T11:56:14.491Z,1.40
2019-01-25T11:58:43.668Z,1.40
2019-01-25T12:01:13.144Z,1.40
2019-01-25T12:03:42.087Z,1.50
2019-01-25T12:06:11.136Z,1.50
2019-01-25T12:08:40.126Z,1.50
2019-01-25T12:11:09.289Z,1.50
2019-01-25T12:13:38.287Z,1.60
2019-01-25T12:16:07.448Z,1.50
2019-01-25T12:18:36.471Z,1.40
2019-01-25T12:21:05.523Z,1.50
2019-01-25T12:23:34.864Z,1.60
2019-01-25T12:26:04.045Z,1.70
2019-01-25T12:28:33.290Z,1.60
2019-01-25T12:31:02.441Z,1.40
2019-01-25T12:33:31.461Z,1.40
2019-01-25T12:36:00.800Z,1.40
2019-01-25T12:38:29.832Z,1.50
2019-01-25T12:40:58.866Z,1.40
2019-01-25T12:43:27.846Z,1.50
2019-01-25T12:45:57.044Z,1.40
2019-01-25T12:48:26.004Z,1.50
2019-01-25T12:51:02.453Z,1.70
2019-01-25T12:53:32.027Z,1.80
2019-01-25T12:56:01.205Z,1.70
2019-01-25T12:58:30.958Z,1.60
2019-01-25T13:01:01.984Z,1.50
2019-01-25T13:03:32.714Z,1.50
2019-01-25T13:06:02.058Z,1.60
2019-01-25T13:08:31.211Z,1.60
2019-01-25T13:11:00.656Z,1.70
2019-01-25T13:13:31.674Z,1.80
2019-01-25T13:16:04.342Z,1.90
2019-01-25T13:18:33.529Z,1.90
2019-01-25T13:21:02.614Z,1.90
2019-01-25T13:23:31.872Z,1.90
2019-01-25T13:26:00.923Z,2.00
2019-01-25T13:28:30.282Z,1.90
2019-01-25T13:30:59.323Z,1.70
2019-01-25T13:33:28.395Z,1.70
2019-01-25T13:35:57.348Z,1.80
2019-01-25T13:38:26.507Z,1.80
2019-01-25T13:40:55.478Z,1.80
2019-01-25T13:43:26.672Z,1.80
2019-01-25T13:45:55.990Z,1.90
2019-01-25T13:48:24.980Z,1.90
2019-01-25T13:50:54.001Z,2.00
2019-01-25T13:53:23.274Z,2.10
2019-01-25T13:55:52.393Z,2.10
2019-01-25T13:58:21.618Z,2.10
2019-01-25T14:00:50.855Z,2.10
2019-01-25T14:03:21.032Z,2.10
2019-01-25T14:05:50.108Z,2.10
2019-01-25T14:08:19.299Z,2.20
2019-01-25T14:10:48.341Z,2.20
2019-01-25T14:13:17.602Z,2.10
2019-01-25T14:15:46.779Z,2.10
2019-01-25T14:18:15.768Z,2.00
2019-01-25T14:20:44.735Z,2.00
2019-01-25T14:23:13.708Z,2.00
2019-01-25T14:25:42.786Z,2.10
2019-01-25T14:28:11.796Z,2.10
2019-01-25T14:30:42.397Z,2.10
2019-01-25T14:33:11.318Z,2.00
2019-01-25T14:35:41.322Z,2.00
2019-01-25T14:38:16.151Z,2.00
2019-01-25T14:40:46.158Z,1.90
2019-01-25T14:43:15.142Z,1.90
2019-01-25T14:45:44.062Z,1.90
2019-01-25T14:48:13.228Z,1.90
2019-01-25T14:50:42.272Z,1.90
2019-01-25T14:53:11.658Z,1.90
2019-01-25T14:55:40.914Z,1.80
2019-01-25T14:58:10.220Z,1.90
2019-01-25T15:00:39.326Z,1.90
2019-01-25T15:03:08.434Z,2.00
2019-01-25T15:05:37.592Z,2.00
2019-01-25T15:08:06.969Z,2.00
2019-01-25T15:10:36.294Z,2.00
2019-01-25T15:13:07.486Z,2.00
2019-01-25T15:15:36.821Z,2.00
2019-01-25T15:18:08.847Z,2.00
2019-01-25T15:20:38.842Z,2.00
2019-01-25T15:23:07.842Z,2.00
2019-01-25T15:25:37.265Z,2.00
2019-01-25T15:28:06.409Z,2.00
2019-01-25T15:30:35.719Z,2.00
2019-01-25T15:33:05.188Z,2.00
2019-01-25T15:35:37.940Z,2.00
2019-01-25T15:38:07.149Z,2.00
2019-01-25T15:40:36.365Z,2.00
2019-01-25T15:43:05.469Z,2.00
2019-01-25T15:45:34.723Z,2.00
2019-01-25T15:48:04.262Z,2.10
2019-01-25T15:50:33.730Z,2.00
2019-01-25T15:53:02.906Z,2.10
2019-01-25T15:55:32.198Z,2.10
2019-01-25T15:58:01.706Z,2.10
2019-01-25T16:00:31.206Z,2.10
2019-01-25T16:03:01.083Z,2.10
2019-01-25T16:05:30.156Z,2.10
2019-01-25T16:07:59.275Z,2.10
2019-01-25T16:10:28.611Z,2.10
2019-01-25T16:12:58.265Z,2.10
2019-01-25T16:15:29.667Z,2.10
2019-01-25T16:17:59.158Z,2.10
2019-01-25T16:20:28.485Z,2.10
2019-01-25T16:22:58.468Z,2.10
2019-01-25T16:25:32.649Z,2.10
2019-01-25T16:28:01.744Z,2.10
2019-01-25T16:30:38.924Z,2.10
2019-01-25T16:33:08.967Z,2.10
2019-01-25T16:35:38.228Z,2.10
2019-01-25T16:38:10.213Z,2.10
2019-01-25T16:40:39.564Z,2.10
2019-01-25T16:43:11.038Z,2.00
2019-01-25T16:45:42.742Z,2.00
2019-01-25T16:48:11.937Z,2.00
2019-01-25T16:50:41.245Z,2.10
2019-01-25T16:53:13.277Z,2.10
2019-01-25T16:55:45.736Z,2.10
2019-01-25T16:58:14.833Z,2.10
2019-01-25T17:00:45.949Z,2.10
2019-01-25T17:03:15.145Z,2.10
2019-01-25T17:05:53.316Z,2.10
2019-01-25T17:08:22.716Z,2.00
2019-01-25T17:10:52.028Z,2.10
2019-01-25T17:13:20.970Z,2.10
2019-01-25T17:15:50.589Z,2.10
2019-01-25T17:18:19.674Z,2.10
2019-01-25T17:20:49.838Z,2.10
2019-01-25T17:23:18.998Z,2.10
2019-01-25T17:25:48.139Z,2.10
2019-01-25T17:28:17.288Z,2.00
2019-01-25T17:30:46.198Z,2.10
2019-01-25T17:33:15.361Z,2.10
2019-01-25T17:35:44.426Z,2.10
2019-01-25T17:38:13.359Z,2.10
2019-01-25T17:40:46.732Z,2.10
2019-01-25T17:43:20.862Z,2.20
2019-01-25T17:45:49.944Z,2.20
2019-01-25T17:48:20.527Z,2.20
2019-01-25T17:50:51.507Z,2.30
2019-01-25T17:53:20.800Z,2.30
2019-01-25T17:55:50.036Z,2.20
2019-01-25T17:58:19.535Z,2.20
2019-01-25T18:00:56.190Z,2.10
2019-01-25T18:03:25.398Z,2.20
2019-01-25T18:05:54.789Z,2.20
2019-01-25T18:08:23.849Z,2.20
2019-01-25T18:10:53.350Z,2.20
2019-01-25T18:13:22.544Z,2.20
2019-01-25T18:15:55.339Z,2.20
2019-01-25T18:18:24.559Z,2.20
2019-01-25T18:20:53.897Z,2.20
2019-01-25T18:23:23.008Z,2.20
2019-01-25T18:26:07.472Z,2.20
2019-01-25T18:28:40.782Z,2.30
2019-01-25T18:31:13.793Z,2.30
2019-01-25T18:33:42.920Z,2.30
2019-01-25T18:36:12.965Z,2.30
2019-01-25T18:38:42.040Z,2.30
2019-01-25T18:41:11.260Z,2.20
2019-01-25T18:43:40.353Z,2.30
2019-01-25T18:46:09.591Z,2.30
2019-01-25T18:48:38.896Z,2.30
2019-01-25T18:51:08.061Z,2.30
2019-01-25T18:53:37.019Z,2.20
2019-01-25T18:56:08.047Z,2.20
2019-01-25T18:58:37.086Z,2.20
2019-01-25T19:01:06.194Z,2.20
2019-01-25T19:03:37.959Z,2.20
2019-01-25T19:06:07.057Z,2.20
2019-01-25T19:08:36.335Z,2.20
2019-01-25T19:11:05.478Z,2.20
2019-01-25T19:13:34.775Z,2.30
2019-01-25T19:16:04.125Z,2.30
2019-01-25T19:18:33.323Z,2.30
2019-01-25T19:21:02.454Z,2.30
2019-01-25T19:23:31.676Z,2.30
2019-01-25T19:26:00.793Z,2.30
2019-01-25T19:28:29.943Z,2.30
2019-01-25T19:30:59.418Z,2.30
2019-01-25T19:33:29.536Z,2.30
2019-01-25T19:35:58.807Z,2.20
2019-01-25T19:38:28.586Z,2.20
2019-01-25T19:40:57.703Z,2.10
2019-01-25T19:43:26.774Z,2.20
2019-01-25T19:45:56.255Z,2.20
2019-01-25T19:48:25.218Z,2.20
2019-01-25T19:50:54.421Z,2.20
2019-01-25T19:53:23.717Z,2.30
2019-01-25T19:55:53.251Z,2.30
2019-01-25T19:58:22.334Z,2.20
2019-01-25T20:00:51.484Z,2.20
2019-01-25T20:03:21.016Z,2.20
2019-01-25T20:05:53.715Z,2.20
2019-01-25T20:08:22.781Z,2.20
2019-01-25T20:10:51.671Z,2.20
2019-01-25T20:13:22.321Z,2.20
2019-01-25T20:15:51.494Z,2.20
2019-01-25T20:18:20.595Z,2.20
2019-01-25T20:20:49.744Z,2.20
2019-01-25T20:23:18.773Z,2.20
2019-01-25T20:25:48.166Z,2.20
2019-01-25T20:28:17.647Z,2.20
2019-01-25T20:30:49.738Z,2.20
2019-01-25T20:33:17.645Z,2.20
2019-01-25T20:35:47.617Z,2.20
2019-01-25T20:38:16.636Z,2.20
2019-01-25T20:40:45.921Z,2.20
2019-01-25T20:43:15.072Z,2.20
2019-01-25T20:45:44.264Z,2.20
2019-01-25T20:48:13.426Z,2.10
2019-01-25T20:50:42.611Z,2.10
2019-01-25T20:53:12.297Z,2.00
2019-01-25T20:55:41.422Z,2.00
2019-01-25T20:58:10.722Z,2.00
2019-01-25T21:00:40.462Z,2.00
2019-01-25T21:03:14.583Z,2.00
2019-01-25T21:05:47.339Z,2.10
2019-01-25T21:08:16.612Z,2.10
2019-01-25T21:10:45.755Z,2.10
2019-01-25T21:13:14.664Z,2.20
2019-01-25T21:15:43.930Z,2.20
2019-01-25T21:18:13.104Z,2.20
2019-01-25T21:20:44.969Z,2.20
2019-01-25T21:23:14.695Z,2.10
2019-01-25T21:25:43.710Z,2.20
2019-01-25T21:28:13.705Z,2.20
2019-01-25T21:30:44.246Z,2.20
2019-01-25T21:33:13.548Z,2.20
2019-01-25T21:35:43.149Z,2.20
2019-01-25T21:38:12.240Z,2.20
2019-01-25T21:40:41.211Z,2.20
2019-01-25T21:43:10.324Z,2.20
2019-01-25T21:45:43.182Z,2.30
2019-01-25T21:48:13.314Z,2.30
2019-01-25T21:50:43.515Z,2.20
2019-01-25T21:53:12.783Z,2.20
2019-01-25T21:55:41.995Z,2.10
2019-01-25T21:58:11.205Z,2.10
2019-01-25T22:00:40.180Z,2.20
2019-01-25T22:03:09.300Z,2.20
2019-01-25T22:05:38.576Z,2.20
2019-01-25T22:08:07.795Z,2.20
2019-01-25T22:10:40.065Z,2.20
2019-01-25T22:13:09.467Z,2.20
2019-01-25T22:15:38.766Z,2.20
2019-01-25T22:18:08.032Z,2.20
2019-01-25T22:20:37.106Z,2.20
2019-01-25T22:23:06.652Z,2.20
2019-01-25T22:25:35.799Z,2.20
2019-01-25T22:28:07.261Z,2.20
2019-01-25T22:30:36.308Z,2.20
2019-01-25T22:33:07.025Z,2.20
2019-01-25T22:35:36.094Z,2.20
2019-01-25T22:38:05.155Z,2.20
2019-01-25T22:40:37.506Z,2.30
2019-01-25T22:43:09.870Z,2.30
2019-01-25T22:45:39.140Z,2.30
2019-01-25T22:48:08.234Z,2.30
2019-01-25T22:50:41.410Z,2.30
2019-01-25T22:53:10.480Z,2.30
2019-01-25T22:55:40.227Z,2.30
2019-01-25T22:58:12.276Z,2.30
2019-01-25T23:01:01.567Z,2.30
2019-01-25T23:03:37.541Z,2.30
2019-01-25T23:06:42.099Z,2.30
2019-01-25T23:09:34.486Z,2.20
2019-01-25T23:12:03.698Z,2.20
2019-01-25T23:14:33.773Z,2.20
2019-01-25T23:17:02.801Z,2.30
2019-01-25T23:19:31.815Z,2.30
2019-01-25T23:22:00.740Z,2.20
2019-01-25T23:24:30.007Z,2.20
2019-01-25T23:26:59.074Z,2.20
2019-01-25T23:29:28.135Z,2.20
2019-01-25T23:31:57.221Z,2.20
2019-01-25T23:34:26.727Z,2.20
2019-01-25T23:36:55.831Z,2.20
2019-01-25T23:39:25.123Z,2.20
2019-01-25T23:41:54.190Z,2.20
2019-01-25T23:44:23.269Z,2.20
2019-01-25T23:46:52.457Z,2.20
2019-01-25T23:49:21.453Z,2.20
2019-01-25T23:51:50.513Z,2.20
2019-01-25T23:54:19.651Z,2.20
2019-01-25T23:56:48.645Z,2.20
2019-01-25T23:59:17.734Z,2.10
